Crustaceo — CURE8 — position and weather

sailwx.info

Track history (hours):
 
Tides and Currents Weather Stations Pressure Air Temp Water Temp Dewpoint Dewpoint Depression Visibility Wind Speed Wind Dir Waves Ship Positions

Crustaceo

Last reported at 2017-Oct-22 10:01 UTC. Time now 2017-Oct-22 10:13 UTC.
Position N 37°49' W 009°08'.

Length 23 m.

Type: Fishing. MMSI: 204263000.

Date/timePositionNaut miles runAvg speedWind from/ knotsBaromVisibWave heightAir tempDewpointWater temp
2017-Oct-22 10:01N 37°49' W 009°08'2 3.2
2017-Oct-22 09:15N 37°46' W 009°08'2 2.4
2017-Oct-22 08:36N 37°48' W 009°08'0 2.9
2017-Oct-22 08:30N 37°48' W 009°08'1 2.9
2017-Oct-22 08:01N 37°50' W 009°09'1 2.7
2017-Oct-22 07:30N 37°51' W 009°09'1 2.7
2017-Oct-22 07:01N 37°52' W 009°09'1 1.4
2017-Oct-22 06:31N 37°53' W 009°10'0 0.9
2017-Oct-22 06:01N 37°53' W 009°09'3 6.4
2017-Oct-22 05:31N 37°54' W 009°05'3 6.6
2017-Oct-22 05:01N 37°54' W 009°01'3 6.1
2017-Oct-22 04:31N 37°55' W 008°57'3 6.6
2017-Oct-22 04:00N 37°56' W 008°53'2 3.1
2017-Oct-22 03:31N 37°57' W 008°52'0 0.0
2017-Oct-22 03:00N 37°57' W 008°52'0 0.0
2017-Oct-22 02:30N 37°57' W 008°52'0 0.0
2017-Oct-22 02:01N 37°57' W 008°52'0 0.0
2017-Oct-22 01:30N 37°57' W 008°52'0 0.0
2017-Oct-22 01:01N 37°57' W 008°52'0 0.0
2017-Oct-22 00:30N 37°57' W 008°52'0 0.0
2017-Oct-22 00:01N 37°57' W 008°52'0 0.0
2017-Oct-21 23:31N 37°57' W 008°52'0 0.0
2017-Oct-21 23:01N 37°57' W 008°52'0 0.0
2017-Oct-21 22:31N 37°57' W 008°52'0 0.0
2017-Oct-21 22:01N 37°57' W 008°52'0 0.0
2017-Oct-21 21:31N 37°57' W 008°52'0 0.0
2017-Oct-21 21:01N 37°57' W 008°52'0 0.0
2017-Oct-21 20:30N 37°57' W 008°52'0 0.0
2017-Oct-21 20:01N 37°57' W 008°52'0 0.0
2017-Oct-21 19:30N 37°57' W 008°52'0 0.0
2017-Oct-21 19:01N 37°57' W 008°52'0 0.0
2017-Oct-21 18:31N 37°57' W 008°52'2 4.2
2017-Oct-21 18:01N 37°56' W 008°55'4 8.2
2017-Oct-21 17:30N 37°58' W 008°59'4 8.1
2017-Oct-21 17:01N 37°59' W 009°04'4 7.6
2017-Oct-21 16:30N 38°00' W 009°09'13 0.3
2017-Oct-20 02:05N 38°02' W 009°25'0 1.7
2017-Oct-20 02:00N 38°02' W 009°25'11 6.2
2017-Oct-20 00:15N 38°00' W 009°11'2 7.9
2017-Oct-20 00:00N 37°60' W 009°09'4 7.7
2017-Oct-19 23:30N 37°59' W 009°04'4 7.9
2017-Oct-19 23:00N 37°58' W 008°59'4 8.5
2017-Oct-19 22:30N 37°56' W 008°54'2 3.8
2017-Oct-19 22:00N 37°57' W 008°52'0 0.0
2017-Oct-19 21:30N 37°57' W 008°52'0 0.0
2017-Oct-19 21:00N 37°57' W 008°52'0 0.0
2017-Oct-19 20:30N 37°57' W 008°52'0 0.0
2017-Oct-19 20:00N 37°57' W 008°52'0 0.0
2017-Oct-19 19:30N 37°57' W 008°52'0 0.0
2017-Oct-19 19:00N 37°57' W 008°52'0 0.1
2017-Oct-19 18:30N 37°57' W 008°52'3 6.5
2017-Oct-19 18:00N 37°56' W 008°56'4 8.2
2017-Oct-19 17:30N 37°55' W 009°01'4 8.1
2017-Oct-19 17:00N 37°54' W 009°06'4 7.7
2017-Oct-19 16:30N 37°54' W 009°11'15 0.4
2017-Oct-18 00:41N 37°51' W 009°29'2 7.1
2017-Oct-18 00:25N 37°51' W 009°27'3 7.0
2017-Oct-18 00:01N 37°51' W 009°23'4 7.1
2017-Oct-17 23:31N 37°52' W 009°19'4 7.3
2017-Oct-17 23:00N 37°53' W 009°14'4 7.6
2017-Oct-17 22:30N 37°54' W 009°10'4 7.6
2017-Oct-17 22:01N 37°54' W 009°05'4 7.5
2017-Oct-17 21:31N 37°55' W 009°00'4 7.9
2017-Oct-17 21:00N 37°56' W 008°55'3 5.8
2017-Oct-17 20:31N 37°57' W 008°52'0 0.0
2017-Oct-17 20:01N 37°57' W 008°52'0 0.0
2017-Oct-17 19:31N 37°57' W 008°52'0 0.0
2017-Oct-17 19:01N 37°57' W 008°52'0 0.0
2017-Oct-17 18:31N 37°57' W 008°52'0 0.0
2017-Oct-17 18:00N 37°57' W 008°52'4 7.5
2017-Oct-17 17:30N 37°56' W 008°57'30 1.3
2017-Oct-16 18:13N 37°27' W 009°10'0 0.3
2017-Oct-16 18:00N 37°27' W 009°10'30 1.8
2017-Oct-16 01:31N 36°59' W 008°56'2 8.8
2017-Oct-16 01:20N 36°60' W 008°54'3 8.7
2017-Oct-16 00:57N 37°01' W 008°50'4 8.3
2017-Oct-16 00:30N 37°02' W 008°46'4 8.1
2017-Oct-16 00:00N 37°03' W 008°41'4 7.8
2017-Oct-15 23:30N 37°04' W 008°36'4 7.6
2017-Oct-15 23:00N 37°06' W 008°32'2 3.9
2017-Oct-15 22:30N 37°08' W 008°32'0 0.0
2017-Oct-15 21:59N 37°08' W 008°32'0 0.0
2017-Oct-15 21:30N 37°08' W 008°32'0 0.0
2017-Oct-15 21:00N 37°08' W 008°32'0 0.0
2017-Oct-15 20:30N 37°08' W 008°32'0 0.0
2017-Oct-15 20:00N 37°08' W 008°32'2 3.4
2017-Oct-15 19:30N 37°06' W 008°32'4 8.7
2017-Oct-15 19:00N 37°02' W 008°31'4 8.4
2017-Oct-15 18:30N 36°58' W 008°31'5 7.9
2017-Oct-15 17:51N 36°53' W 008°31'1 2.5
2017-Oct-15 17:26N 36°52' W 008°31'1 1.0
2017-Oct-15 16:55N 36°51' W 008°31'1 2.7
2017-Oct-15 16:28N 36°50' W 008°32'1 2.3
2017-Oct-15 15:51N 36°49' W 008°31'1 2.9
2017-Oct-15 15:27N 36°49' W 008°29'5 2.5
2017-Oct-15 13:27N 36°49' W 008°23'9 2.6
2017-Oct-15 09:49N 36°49' W 008°12'6 2.4
2017-Oct-15 07:10N 36°49' W 008°20'1 3.0
2017-Oct-15 06:59N 36°49' W 008°20'1 3.0
2017-Oct-15 06:30N 36°49' W 008°22'1 1.2
2017-Oct-15 06:00N 36°49' W 008°23'4 6.5
2017-Oct-15 05:24N 36°51' W 008°19'1 1.6
2017-Oct-15 05:00N 36°51' W 008°19'2 2.9
2017-Oct-15 04:19N 36°52' W 008°22'1 2.9
2017-Oct-15 04:01N 36°52' W 008°23'2 3.0
2017-Oct-15 03:30N 36°53' W 008°24'1 3.0
2017-Oct-15 03:01N 36°53' W 008°26'2 3.0
2017-Oct-15 02:30N 36°53' W 008°28'2 3.6
2017-Oct-15 02:01N 36°55' W 008°30'5 8.9
2017-Oct-15 01:30N 36°59' W 008°31'4 8.4
2017-Oct-15 01:00N 37°03' W 008°31'4 7.8
2017-Oct-15 00:30N 37°07' W 008°31'1 1.9
2017-Oct-15 00:00N 37°08' W 008°32'0 0.0
2017-Oct-14 23:30N 37°08' W 008°32'0 0.0
2017-Oct-14 23:00N 37°08' W 008°32'0 0.0
2017-Oct-14 22:20N 37°08' W 008°32'0 0.0
2017-Oct-14 21:59N 37°08' W 008°32'0 0.0
2017-Oct-14 21:30N 37°08' W 008°32'0 0.0
2017-Oct-14 20:58N 37°08' W 008°32'0 0.0
2017-Oct-14 20:29N 37°08' W 008°32'0 0.0
2017-Oct-14 19:58N 37°08' W 008°32'0 0.0
2017-Oct-14 19:28N 37°08' W 008°32'0 0.0
2017-Oct-14 18:59N 37°08' W 008°32'0 0.0
2017-Oct-14 18:24N 37°08' W 008°32'0 0.0
2017-Oct-14 18:00N 37°08' W 008°32'0 0.3
2017-Oct-14 17:30N 37°08' W 008°32'0 0.0
2017-Oct-14 17:00N 37°08' W 008°32'0 0.0
2017-Oct-14 16:30N 37°08' W 008°32'0 0.0
2017-Oct-14 15:58N 37°08' W 008°32'0 0.0
2017-Oct-14 15:30N 37°08' W 008°32'0 0.0
2017-Oct-14 14:59N 37°08' W 008°32'0 0.0
2017-Oct-14 14:26N 37°08' W 008°32'0 0.0
2017-Oct-14 13:51N 37°08' W 008°32'0 0.0
2017-Oct-14 13:26N 37°08' W 008°32'0 0.0
2017-Oct-14 12:59N 37°08' W 008°32'0 0.0
2017-Oct-14 12:29N 37°08' W 008°32'0 0.0
2017-Oct-14 11:51N 37°08' W 008°32'0 0.0
2017-Oct-14 11:21N 37°08' W 008°32'0 0.0
2017-Oct-14 10:57N 37°08' W 008°32'0 0.0
2017-Oct-14 10:30N 37°08' W 008°32'0 0.0
2017-Oct-14 09:52N 37°08' W 008°32'0 0.0
2017-Oct-14 09:12N 37°08' W 008°32'0 0.0
2017-Oct-14 08:57N 37°08' W 008°32'0 0.0
2017-Oct-14 08:22N 37°08' W 008°32'0 0.0
2017-Oct-14 07:56N 37°08' W 008°32'0 0.0
2017-Oct-14 07:28N 37°08' W 008°32'0 0.0
2017-Oct-14 06:58N 37°08' W 008°32'0 0.0
2017-Oct-14 06:30N 37°08' W 008°32'0 0.0
2017-Oct-14 05:58N 37°08' W 008°32'0 0.0
2017-Oct-14 05:30N 37°08' W 008°32'0 0.0
2017-Oct-14 05:00N 37°08' W 008°32'0 0.0
2017-Oct-14 04:25N 37°08' W 008°32'0 0.0
2017-Oct-14 03:55N 37°08' W 008°32'0 0.0
2017-Oct-14 03:30N 37°08' W 008°32'0 0.0
2017-Oct-14 02:56N 37°08' W 008°32'0 0.0
2017-Oct-14 02:30N 37°08' W 008°32'0 0.0
2017-Oct-14 02:00N 37°08' W 008°32'0 0.0
2017-Oct-14 01:30N 37°08' W 008°32'0 0.0
2017-Oct-14 01:00N 37°08' W 008°32'0 0.0
2017-Oct-14 00:30N 37°08' W 008°32'0 0.0
2017-Oct-14 00:00N 37°08' W 008°32'0 0.0
2017-Oct-13 23:30N 37°08' W 008°32'0 0.0
2017-Oct-13 23:00N 37°08' W 008°32'0 0.0
2017-Oct-13 22:30N 37°08' W 008°32'0 0.0
2017-Oct-13 22:00N 37°08' W 008°32'0 0.0
2017-Oct-13 21:30N 37°08' W 008°32'0 0.0
2017-Oct-13 20:59N 37°08' W 008°32'0 0.0
2017-Oct-13 20:30N 37°08' W 008°32'0 0.0
2017-Oct-13 20:00N 37°08' W 008°32'0 0.0
2017-Oct-13 19:30N 37°08' W 008°32'0 0.0
2017-Oct-13 19:00N 37°08' W 008°32'0 0.0
2017-Oct-13 18:30N 37°08' W 008°32'0 0.0
2017-Oct-13 18:00N 37°08' W 008°32'0 0.0
2017-Oct-13 17:30N 37°08' W 008°32'0 0.0
2017-Oct-13 17:00N 37°08' W 008°32'0 0.0
2017-Oct-13 16:30N 37°08' W 008°32'0 0.0
2017-Oct-13 16:00N 37°08' W 008°32'0 0.0
2017-Oct-13 15:30N 37°08' W 008°32'0 0.0
2017-Oct-13 15:00N 37°08' W 008°32'0 0.0
2017-Oct-13 14:30N 37°08' W 008°32'0 0.0
2017-Oct-13 14:00N 37°08' W 008°32'0 0.0
2017-Oct-13 13:30N 37°08' W 008°32'0 0.0
2017-Oct-13 13:00N 37°08' W 008°32'0 0.0
2017-Oct-13 12:30N 37°08' W 008°32'0 0.0
2017-Oct-13 12:00N 37°08' W 008°32'0 0.0
2017-Oct-13 11:30N 37°08' W 008°32'0 0.0
2017-Oct-13 11:00N 37°08' W 008°32'0 0.0
2017-Oct-13 10:29N 37°08' W 008°32'0 0.0
2017-Oct-13 10:00N 37°08' W 008°32'0 0.0
2017-Oct-13 09:30N 37°08' W 008°32'0 0.0
2017-Oct-13 09:00N 37°08' W 008°32'0 0.0
2017-Oct-13 08:30N 37°08' W 008°32'0 0.0
2017-Oct-13 08:00N 37°08' W 008°32'0 0.0
2017-Oct-13 07:30N 37°08' W 008°32'0 0.0
2017-Oct-13 07:00N 37°08' W 008°32'0 0.0
2017-Oct-13 06:30N 37°08' W 008°32'0 0.0
2017-Oct-13 05:59N 37°08' W 008°32'0 0.0
2017-Oct-13 05:30N 37°08' W 008°32'0 0.0
2017-Oct-13 04:48N 37°08' W 008°32'0 0.0
2017-Oct-13 04:30N 37°08' W 008°32'0 0.0
2017-Oct-13 03:52N 37°08' W 008°32'0 0.0
2017-Oct-13 03:14N 37°08' W 008°32'0 0.0
2017-Oct-13 02:45N 37°08' W 008°32'0 0.0
2017-Oct-13 02:30N 37°08' W 008°32'0 0.0
2017-Oct-13 01:16N 37°08' W 008°32'0 0.0
2017-Oct-13 00:54N 37°08' W 008°32'0 0.0
2017-Oct-13 00:17N 37°08' W 008°32'0 0.0
2017-Oct-12 23:54N 37°08' W 008°32'0 0.0
2017-Oct-12 23:27N 37°08' W 008°32'0 0.0
2017-Oct-12 22:38N 37°08' W 008°32'0 0.1
2017-Oct-12 22:27N 37°08' W 008°32'0 0.0
2017-Oct-12 22:00N 37°08' W 008°32'0 0.0
2017-Oct-12 21:30N 37°08' W 008°32'0 0.0
2017-Oct-12 20:45N 37°08' W 008°32'0 0.0
2017-Oct-12 20:23N 37°08' W 008°32'0 0.0
2017-Oct-12 19:58N 37°08' W 008°32'0 0.0
2017-Oct-12 19:26N 37°08' W 008°32'0 0.0
2017-Oct-12 19:00N 37°08' W 008°32'0 0.0
2017-Oct-12 18:26N 37°08' W 008°32'0 0.0
2017-Oct-12 18:00N 37°08' W 008°32'0 0.0
2017-Oct-12 17:30N 37°08' W 008°32'0 0.0
2017-Oct-12 17:00N 37°08' W 008°32'0 0.0
2017-Oct-12 16:30N 37°08' W 008°32'0 0.0
2017-Oct-12 16:00N 37°08' W 008°32'0 0.0
2017-Oct-12 15:30N 37°08' W 008°32'0 0.0
2017-Oct-12 14:59N 37°08' W 008°32'0 0.0
2017-Oct-12 14:30N 37°08' W 008°32'0 0.0
2017-Oct-12 14:00N 37°08' W 008°32'0 0.0
2017-Oct-12 13:30N 37°08' W 008°32'0 0.0
2017-Oct-12 12:58N 37°08' W 008°32'0 0.0
2017-Oct-12 12:29N 37°08' W 008°32'0 0.0
2017-Oct-12 11:59N 37°08' W 008°32'0 0.0
2017-Oct-12 11:30N 37°08' W 008°32'0 0.0
2017-Oct-12 11:00N 37°08' W 008°32'0 0.0
2017-Oct-12 10:30N 37°08' W 008°32'  
Track history (hours):
 
Tides and Currents Weather Stations Pressure Air Temp Water Temp Dewpoint Dewpoint Depression Visibility Wind Speed Wind Dir Waves Ship Positions

Crustaceo

Last reported at 2017-Oct-22 10:01 UTC. Time now 2017-Oct-22 10:13 UTC.
Position N 37°49' W 009°08'.

Length 23 m.

Type: Fishing. MMSI: 204263000.

Date/timePositionNaut miles runAvg speedWind from/ knotsBaromVisibWave heightAir tempDewpointWater temp
2017-Oct-22 10:01N 37°49' W 009°08'2 3.2
2017-Oct-22 09:15N 37°46' W 009°08'2 2.4
2017-Oct-22 08:36N 37°48' W 009°08'0 2.9
2017-Oct-22 08:30N 37°48' W 009°08'1 2.9
2017-Oct-22 08:01N 37°50' W 009°09'1 2.7
2017-Oct-22 07:30N 37°51' W 009°09'1 2.7
2017-Oct-22 07:01N 37°52' W 009°09'1 1.4
2017-Oct-22 06:31N 37°53' W 009°10'0 0.9
2017-Oct-22 06:01N 37°53' W 009°09'3 6.4
2017-Oct-22 05:31N 37°54' W 009°05'3 6.6
2017-Oct-22 05:01N 37°54' W 009°01'3 6.1
2017-Oct-22 04:31N 37°55' W 008°57'3 6.6
2017-Oct-22 04:00N 37°56' W 008°53'2 3.1
2017-Oct-22 03:31N 37°57' W 008°52'0 0.0
2017-Oct-22 03:00N 37°57' W 008°52'0 0.0
2017-Oct-22 02:30N 37°57' W 008°52'0 0.0
2017-Oct-22 02:01N 37°57' W 008°52'0 0.0
2017-Oct-22 01:30N 37°57' W 008°52'0 0.0
2017-Oct-22 01:01N 37°57' W 008°52'0 0.0
2017-Oct-22 00:30N 37°57' W 008°52'0 0.0
2017-Oct-22 00:01N 37°57' W 008°52'0 0.0
2017-Oct-21 23:31N 37°57' W 008°52'0 0.0
2017-Oct-21 23:01N 37°57' W 008°52'0 0.0
2017-Oct-21 22:31N 37°57' W 008°52'0 0.0
2017-Oct-21 22:01N 37°57' W 008°52'0 0.0
2017-Oct-21 21:31N 37°57' W 008°52'0 0.0
2017-Oct-21 21:01N 37°57' W 008°52'0 0.0
2017-Oct-21 20:30N 37°57' W 008°52'0 0.0
2017-Oct-21 20:01N 37°57' W 008°52'0 0.0
2017-Oct-21 19:30N 37°57' W 008°52'0 0.0
2017-Oct-21 19:01N 37°57' W 008°52'0 0.0
2017-Oct-21 18:31N 37°57' W 008°52'2 4.2
2017-Oct-21 18:01N 37°56' W 008°55'4 8.2
2017-Oct-21 17:30N 37°58' W 008°59'4 8.1
2017-Oct-21 17:01N 37°59' W 009°04'4 7.6
2017-Oct-21 16:30N 38°00' W 009°09'13 0.3
2017-Oct-20 02:05N 38°02' W 009°25'0 1.7
2017-Oct-20 02:00N 38°02' W 009°25'11 6.2
2017-Oct-20 00:15N 38°00' W 009°11'2 7.9
2017-Oct-20 00:00N 37°60' W 009°09'4 7.7
2017-Oct-19 23:30N 37°59' W 009°04'4 7.9
2017-Oct-19 23:00N 37°58' W 008°59'4 8.5
2017-Oct-19 22:30N 37°56' W 008°54'2 3.8
2017-Oct-19 22:00N 37°57' W 008°52'0 0.0
2017-Oct-19 21:30N 37°57' W 008°52'0 0.0
2017-Oct-19 21:00N 37°57' W 008°52'0 0.0
2017-Oct-19 20:30N 37°57' W 008°52'0 0.0
2017-Oct-19 20:00N 37°57' W 008°52'0 0.0
2017-Oct-19 19:30N 37°57' W 008°52'0 0.0
2017-Oct-19 19:00N 37°57' W 008°52'0 0.1
2017-Oct-19 18:30N 37°57' W 008°52'3 6.5
2017-Oct-19 18:00N 37°56' W 008°56'4 8.2
2017-Oct-19 17:30N 37°55' W 009°01'4 8.1
2017-Oct-19 17:00N 37°54' W 009°06'4 7.7
2017-Oct-19 16:30N 37°54' W 009°11'15 0.4
2017-Oct-18 00:41N 37°51' W 009°29'2 7.1
2017-Oct-18 00:25N 37°51' W 009°27'3 7.0
2017-Oct-18 00:01N 37°51' W 009°23'4 7.1
2017-Oct-17 23:31N 37°52' W 009°19'4 7.3
2017-Oct-17 23:00N 37°53' W 009°14'4 7.6
2017-Oct-17 22:30N 37°54' W 009°10'4 7.6
2017-Oct-17 22:01N 37°54' W 009°05'4 7.5
2017-Oct-17 21:31N 37°55' W 009°00'4 7.9
2017-Oct-17 21:00N 37°56' W 008°55'3 5.8
2017-Oct-17 20:31N 37°57' W 008°52'0 0.0
2017-Oct-17 20:01N 37°57' W 008°52'0 0.0
2017-Oct-17 19:31N 37°57' W 008°52'0 0.0
2017-Oct-17 19:01N 37°57' W 008°52'0 0.0
2017-Oct-17 18:31N 37°57' W 008°52'0 0.0
2017-Oct-17 18:00N 37°57' W 008°52'4 7.5
2017-Oct-17 17:30N 37°56' W 008°57'30 1.3
2017-Oct-16 18:13N 37°27' W 009°10'0 0.3
2017-Oct-16 18:00N 37°27' W 009°10'30 1.8
2017-Oct-16 01:31N 36°59' W 008°56'2 8.8
2017-Oct-16 01:20N 36°60' W 008°54'3 8.7
2017-Oct-16 00:57N 37°01' W 008°50'4 8.3
2017-Oct-16 00:30N 37°02' W 008°46'4 8.1
2017-Oct-16 00:00N 37°03' W 008°41'4 7.8
2017-Oct-15 23:30N 37°04' W 008°36'4 7.6
2017-Oct-15 23:00N 37°06' W 008°32'2 3.9
2017-Oct-15 22:30N 37°08' W 008°32'0 0.0
2017-Oct-15 21:59N 37°08' W 008°32'0 0.0
2017-Oct-15 21:30N 37°08' W 008°32'0 0.0
2017-Oct-15 21:00N 37°08' W 008°32'0 0.0
2017-Oct-15 20:30N 37°08' W 008°32'0 0.0
2017-Oct-15 20:00N 37°08' W 008°32'2 3.4
2017-Oct-15 19:30N 37°06' W 008°32'4 8.7
2017-Oct-15 19:00N 37°02' W 008°31'4 8.4
2017-Oct-15 18:30N 36°58' W 008°31'5 7.9
2017-Oct-15 17:51N 36°53' W 008°31'1 2.5
2017-Oct-15 17:26N 36°52' W 008°31'1 1.0
2017-Oct-15 16:55N 36°51' W 008°31'1 2.7
2017-Oct-15 16:28N 36°50' W 008°32'1 2.3
2017-Oct-15 15:51N 36°49' W 008°31'1 2.9
2017-Oct-15 15:27N 36°49' W 008°29'5 2.5
2017-Oct-15 13:27N 36°49' W 008°23'9 2.6
2017-Oct-15 09:49N 36°49' W 008°12'6 2.4
2017-Oct-15 07:10N 36°49' W 008°20'1 3.0
2017-Oct-15 06:59N 36°49' W 008°20'1 3.0
2017-Oct-15 06:30N 36°49' W 008°22'1 1.2
2017-Oct-15 06:00N 36°49' W 008°23'4 6.5
2017-Oct-15 05:24N 36°51' W 008°19'1 1.6
2017-Oct-15 05:00N 36°51' W 008°19'2 2.9
2017-Oct-15 04:19N 36°52' W 008°22'1 2.9
2017-Oct-15 04:01N 36°52' W 008°23'2 3.0
2017-Oct-15 03:30N 36°53' W 008°24'1 3.0
2017-Oct-15 03:01N 36°53' W 008°26'2 3.0
2017-Oct-15 02:30N 36°53' W 008°28'2 3.6
2017-Oct-15 02:01N 36°55' W 008°30'5 8.9
2017-Oct-15 01:30N 36°59' W 008°31'4 8.4
2017-Oct-15 01:00N 37°03' W 008°31'4 7.8
2017-Oct-15 00:30N 37°07' W 008°31'1 1.9
2017-Oct-15 00:00N 37°08' W 008°32'0 0.0
2017-Oct-14 23:30N 37°08' W 008°32'0 0.0
2017-Oct-14 23:00N 37°08' W 008°32'0 0.0
2017-Oct-14 22:20N 37°08' W 008°32'0 0.0
2017-Oct-14 21:59N 37°08' W 008°32'0 0.0
2017-Oct-14 21:30N 37°08' W 008°32'0 0.0
2017-Oct-14 20:58N 37°08' W 008°32'0 0.0
2017-Oct-14 20:29N 37°08' W 008°32'0 0.0
2017-Oct-14 19:58N 37°08' W 008°32'0 0.0
2017-Oct-14 19:28N 37°08' W 008°32'0 0.0
2017-Oct-14 18:59N 37°08' W 008°32'0 0.0
2017-Oct-14 18:24N 37°08' W 008°32'0 0.0
2017-Oct-14 18:00N 37°08' W 008°32'0 0.3
2017-Oct-14 17:30N 37°08' W 008°32'0 0.0
2017-Oct-14 17:00N 37°08' W 008°32'0 0.0
2017-Oct-14 16:30N 37°08' W 008°32'0 0.0
2017-Oct-14 15:58N 37°08' W 008°32'0 0.0
2017-Oct-14 15:30N 37°08' W 008°32'0 0.0
2017-Oct-14 14:59N 37°08' W 008°32'0 0.0
2017-Oct-14 14:26N 37°08' W 008°32'0 0.0
2017-Oct-14 13:51N 37°08' W 008°32'0 0.0
2017-Oct-14 13:26N 37°08' W 008°32'0 0.0
2017-Oct-14 12:59N 37°08' W 008°32'0 0.0
2017-Oct-14 12:29N 37°08' W 008°32'0 0.0
2017-Oct-14 11:51N 37°08' W 008°32'0 0.0
2017-Oct-14 11:21N 37°08' W 008°32'0 0.0
2017-Oct-14 10:57N 37°08' W 008°32'0 0.0
2017-Oct-14 10:30N 37°08' W 008°32'0 0.0
2017-Oct-14 09:52N 37°08' W 008°32'0 0.0
2017-Oct-14 09:12N 37°08' W 008°32'0 0.0
2017-Oct-14 08:57N 37°08' W 008°32'0 0.0
2017-Oct-14 08:22N 37°08' W 008°32'0 0.0
2017-Oct-14 07:56N 37°08' W 008°32'0 0.0
2017-Oct-14 07:28N 37°08' W 008°32'0 0.0
2017-Oct-14 06:58N 37°08' W 008°32'0 0.0
2017-Oct-14 06:30N 37°08' W 008°32'0 0.0
2017-Oct-14 05:58N 37°08' W 008°32'0 0.0
2017-Oct-14 05:30N 37°08' W 008°32'0 0.0
2017-Oct-14 05:00N 37°08' W 008°32'0 0.0
2017-Oct-14 04:25N 37°08' W 008°32'0 0.0
2017-Oct-14 03:55N 37°08' W 008°32'0 0.0
2017-Oct-14 03:30N 37°08' W 008°32'0 0.0
2017-Oct-14 02:56N 37°08' W 008°32'0 0.0
2017-Oct-14 02:30N 37°08' W 008°32'0 0.0
2017-Oct-14 02:00N 37°08' W 008°32'0 0.0
2017-Oct-14 01:30N 37°08' W 008°32'0 0.0
2017-Oct-14 01:00N 37°08' W 008°32'0 0.0
2017-Oct-14 00:30N 37°08' W 008°32'0 0.0
2017-Oct-14 00:00N 37°08' W 008°32'0 0.0
2017-Oct-13 23:30N 37°08' W 008°32'0 0.0
2017-Oct-13 23:00N 37°08' W 008°32'0 0.0
2017-Oct-13 22:30N 37°08' W 008°32'0 0.0
2017-Oct-13 22:00N 37°08' W 008°32'0 0.0
2017-Oct-13 21:30N 37°08' W 008°32'0 0.0
2017-Oct-13 20:59N 37°08' W 008°32'0 0.0
2017-Oct-13 20:30N 37°08' W 008°32'0 0.0
2017-Oct-13 20:00N 37°08' W 008°32'0 0.0
2017-Oct-13 19:30N 37°08' W 008°32'0 0.0
2017-Oct-13 19:00N 37°08' W 008°32'0 0.0
2017-Oct-13 18:30N 37°08' W 008°32'0 0.0
2017-Oct-13 18:00N 37°08' W 008°32'0 0.0
2017-Oct-13 17:30N 37°08' W 008°32'0 0.0
2017-Oct-13 17:00N 37°08' W 008°32'0 0.0
2017-Oct-13 16:30N 37°08' W 008°32'0 0.0
2017-Oct-13 16:00N 37°08' W 008°32'0 0.0
2017-Oct-13 15:30N 37°08' W 008°32'0 0.0
2017-Oct-13 15:00N 37°08' W 008°32'0 0.0
2017-Oct-13 14:30N 37°08' W 008°32'0 0.0
2017-Oct-13 14:00N 37°08' W 008°32'0 0.0
2017-Oct-13 13:30N 37°08' W 008°32'0 0.0
2017-Oct-13 13:00N 37°08' W 008°32'0 0.0
2017-Oct-13 12:30N 37°08' W 008°32'0 0.0
2017-Oct-13 12:00N 37°08' W 008°32'0 0.0
2017-Oct-13 11:30N 37°08' W 008°32'0 0.0
2017-Oct-13 11:00N 37°08' W 008°32'0 0.0
2017-Oct-13 10:29N 37°08' W 008°32'0 0.0
2017-Oct-13 10:00N 37°08' W 008°32'0 0.0
2017-Oct-13 09:30N 37°08' W 008°32'0 0.0
2017-Oct-13 09:00N 37°08' W 008°32'0 0.0
2017-Oct-13 08:30N 37°08' W 008°32'0 0.0
2017-Oct-13 08:00N 37°08' W 008°32'0 0.0
2017-Oct-13 07:30N 37°08' W 008°32'0 0.0
2017-Oct-13 07:00N 37°08' W 008°32'0 0.0
2017-Oct-13 06:30N 37°08' W 008°32'0 0.0
2017-Oct-13 05:59N 37°08' W 008°32'0 0.0
2017-Oct-13 05:30N 37°08' W 008°32'0 0.0
2017-Oct-13 04:48N 37°08' W 008°32'0 0.0
2017-Oct-13 04:30N 37°08' W 008°32'0 0.0
2017-Oct-13 03:52N 37°08' W 008°32'0 0.0
2017-Oct-13 03:14N 37°08' W 008°32'0 0.0
2017-Oct-13 02:45N 37°08' W 008°32'0 0.0
2017-Oct-13 02:30N 37°08' W 008°32'0 0.0
2017-Oct-13 01:16N 37°08' W 008°32'0 0.0
2017-Oct-13 00:54N 37°08' W 008°32'0 0.0
2017-Oct-13 00:17N 37°08' W 008°32'0 0.0
2017-Oct-12 23:54N 37°08' W 008°32'0 0.0
2017-Oct-12 23:27N 37°08' W 008°32'0 0.0
2017-Oct-12 22:38N 37°08' W 008°32'0 0.1
2017-Oct-12 22:27N 37°08' W 008°32'0 0.0
2017-Oct-12 22:00N 37°08' W 008°32'0 0.0
2017-Oct-12 21:30N 37°08' W 008°32'0 0.0
2017-Oct-12 20:45N 37°08' W 008°32'0 0.0
2017-Oct-12 20:23N 37°08' W 008°32'0 0.0
2017-Oct-12 19:58N 37°08' W 008°32'0 0.0
2017-Oct-12 19:26N 37°08' W 008°32'0 0.0
2017-Oct-12 19:00N 37°08' W 008°32'0 0.0
2017-Oct-12 18:26N 37°08' W 008°32'0 0.0
2017-Oct-12 18:00N 37°08' W 008°32'0 0.0
2017-Oct-12 17:30N 37°08' W 008°32'0 0.0
2017-Oct-12 17:00N 37°08' W 008°32'0 0.0
2017-Oct-12 16:30N 37°08' W 008°32'0 0.0
2017-Oct-12 16:00N 37°08' W 008°32'0 0.0
2017-Oct-12 15:30N 37°08' W 008°32'0 0.0
2017-Oct-12 14:59N 37°08' W 008°32'0 0.0
2017-Oct-12 14:30N 37°08' W 008°32'0 0.0
2017-Oct-12 14:00N 37°08' W 008°32'0 0.0
2017-Oct-12 13:30N 37°08' W 008°32'0 0.0
2017-Oct-12 12:58N 37°08' W 008°32'0 0.0
2017-Oct-12 12:29N 37°08' W 008°32'0 0.0
2017-Oct-12 11:59N 37°08' W 008°32'0 0.0
2017-Oct-12 11:30N 37°08' W 008°32'0 0.0
2017-Oct-12 11:00N 37°08' W 008°32'0 0.0
2017-Oct-12 10:30N 37°08' W 008°32'  

Dump ship's entire track history